KADS/ADS METAR and TAF weather

Enter ICAO airport designator
Station Type Date Time Source
KADS METAR 2022/06/27 02:47 UTC NOAA

KADS 270247Z 01017G21KT 13SM SCT070 SCT120 BKN250 31/20 A3011


Station Type Date Time Source
KADS Decoded METAR 2022/06/27 02:47 UTC NOAA

Dallas / Addison Airport, TX, United States (KADS) 32-58N 096-50W
Jun 26, 2022 - 10:47 PM EDT / 2022.06.27 0247 UTC
Wind: from the N (010 degrees) at 20 MPH (17 KT) gusting to 24 MPH (21 KT):0
Visibility: 13 mile(s):0
Sky conditions: mostly cloudy
Temperature: 87 F (31 C)
Dew Point: 68 F (20 C)
Relative Humidity: 52%
Pressure (altimeter): 30.11 in. Hg (1019 hPa)
ob: KADS 270247Z 01017G21KT 13SM SCT070 SCT120 BKN250 31/20 A3011
cycle: 3

Station Type Date Time Source
KADS TAF UTC NOAA

Error!

Example: see airport list